Time,TemperatureF,DewpointF,PressureIn,WindDirection,WindDirectionDegrees,WindSpeedMPH,WindSpeedGustMPH,Humidity,HourlyPrecipIn,Conditions,Clouds,dailyrainin,SoftwareType,DateUTC
2013-08-13 00:14:00,77.0,73.0,29.92,SE,132,0.0,3.0,88,0.00,,,0.00,weatherlink.com 1.10,2013-08-13 04:14:00,
2013-08-13 00:29:00,76.2,73.0,29.93,SE,132,0.0,1.0,90,0.00,,,0.00,weatherlink.com 1.10,2013-08-13 04:29:00,
2013-08-13 00:44:00,75.2,73.0,29.93,SE,132,0.0,1.0,93,0.00,,,0.00,weatherlink.com 1.10,2013-08-13 04:44:00,
2013-08-13 00:59:00,74.8,73.0,29.93,SE,132,0.0,0.0,94,0.00,,,0.00,weatherlink.com 1.10,2013-08-13 04:59:00,
2013-08-13 01:14:00,74.5,73.0,29.92,SE,132,0.0,0.0,95,0.00,,,0.00,weatherlink.com 1.10,2013-08-13 05:14:00,
2013-08-13 01:29:00,74.2,73.0,29.92,SE,132,0.0,0.0,95,0.00,,,0.00,weatherlink.com 1.10,2013-08-13 05:29:00,
2013-08-13 01:44:00,74.0,73.0,29.91,SE,132,0.0,1.0,95,0.00,,,0.00,weatherlink.com 1.10,2013-08-13 05:44:00,
2013-08-13 01:59:00,73.7,72.0,29.89,SE,132,0.0,1.0,94,0.00,,,0.00,weatherlink.com 1.10,2013-08-13 05:59:00,
2013-08-13 02:14:00,73.4,72.0,29.89,SE,132,0.0,0.0,94,0.00,,,0.00,weatherlink.com 1.10,2013-08-13 06:14:00,
2013-08-13 02:29:00,73.2,71.0,29.88,SE,132,0.0,0.0,94,0.00,,,0.00,weatherlink.com 1.10,2013-08-13 06:29:00,
2013-08-13 02:44:00,72.8,71.0,29.88,SE,132,0.0,0.0,95,0.00,,,0.00,weatherlink.com 1.10,2013-08-13 06:44:00,
2013-08-13 02:59:00,72.4,71.0,29.88,SE,132,0.0,0.0,95,0.00,,,0.00,weatherlink.com 1.10,2013-08-13 06:59:00,
2013-08-13 03:14:00,72.2,71.0,29.88,SE,132,0.0,0.0,95,0.00,,,0.00,weatherlink.com 1.10,2013-08-13 07:14:00,
2013-08-13 03:29:00,72.0,71.0,29.88,SE,132,0.0,0.0,96,0.00,,,0.00,weatherlink.com 1.10,2013-08-13 07:29:00,
2013-08-13 03:44:00,71.9,71.0,29.88,SE,132,0.0,1.0,96,0.00,,,0.00,weatherlink.com 1.10,2013-08-13 07:44:00,
2013-08-13 03:59:00,71.9,71.0,29.88,SE,132,0.0,0.0,96,0.00,,,0.00,weatherlink.com 1.10,2013-08-13 07:59:00,
2013-08-13 04:14:00,71.8,71.0,29.88,SE,132,0.0,0.0,97,0.00,,,0.00,weatherlink.com 1.10,2013-08-13 08:14:00,
2013-08-13 04:29:00,71.8,71.0,29.87,SE,132,0.0,1.0,97,0.00,,,0.00,weatherlink.com 1.10,2013-08-13 08:29:00,
2013-08-13 04:44:00,71.9,71.0,29.87,SE,132,0.0,1.0,97,0.00,,,0.00,weatherlink.com 1.10,2013-08-13 08:44:00,
2013-08-13 04:59:00,71.9,71.0,29.86,SE,126,0.0,2.0,97,0.00,,,0.00,weatherlink.com 1.10,2013-08-13 08:59:00,
2013-08-13 05:14:00,72.1,72.0,29.86,ESE,123,1.0,2.0,98,0.00,,,0.00,weatherlink.com 1.10,2013-08-13 09:14:00,
2013-08-13 05:29:00,72.3,72.0,29.86,SE,132,0.0,2.0,98,0.00,,,0.00,weatherlink.com 1.10,2013-08-13 09:29:00,
2013-08-13 05:44:00,72.5,72.0,29.86,South,175,0.0,4.0,98,0.00,,,0.00,weatherlink.com 1.10,2013-08-13 09:44:00,
2013-08-13 05:59:00,72.7,72.0,29.85,South,188,1.0,3.0,98,0.00,,,0.00,weatherlink.com 1.10,2013-08-13 09:59:00,
2013-08-13 06:14:00,72.8,72.0,29.85,SE,129,0.0,2.0,98,0.00,,,0.00,weatherlink.com 1.10,2013-08-13 10:14:00,
2013-08-13 06:29:00,72.8,72.0,29.86,SE,131,0.0,3.0,98,0.00,,,0.00,weatherlink.com 1.10,2013-08-13 10:29:00,
2013-08-13 06:44:00,72.8,72.0,29.85,SW,232,0.0,2.0,98,0.00,,,0.00,weatherlink.com 1.10,2013-08-13 10:44:00,
2013-08-13 06:59:00,72.7,72.0,29.85,ESE,123,0.0,2.0,98,0.00,,,0.00,weatherlink.com 1.10,2013-08-13 10:59:00,
2013-08-13 07:14:00,72.8,72.0,29.85,ESE,113,1.0,1.0,98,0.00,,,0.00,weatherlink.com 1.10,2013-08-13 11:14:00,
2013-08-13 07:29:00,72.9,72.0,29.86,SSW,200,1.0,2.0,98,0.00,,,0.00,weatherlink.com 1.10,2013-08-13 11:29:00,
2013-08-13 07:44:00,73.1,73.0,29.86,SSE,163,0.0,2.0,98,0.00,,,0.00,weatherlink.com 1.10,2013-08-13 11:44:00,
2013-08-13 07:59:00,73.4,73.0,29.85,SSE,149,0.0,5.0,98,0.00,,,0.00,weatherlink.com 1.10,2013-08-13 11:59:00,
2013-08-13 08:14:00,73.8,73.0,29.86,SE,136,0.0,2.0,98,0.00,,,0.00,weatherlink.com 1.10,2013-08-13 12:14:00,
2013-08-13 08:29:00,74.3,73.0,29.86,WNW,292,0.0,3.0,97,0.00,,,0.00,weatherlink.com 1.10,2013-08-13 12:29:00,
2013-08-13 08:44:00,74.8,74.0,29.86,West,262,1.0,5.0,96,0.00,,,0.00,weatherlink.com 1.10,2013-08-13 12:44:00,
2013-08-13 08:59:00,75.6,74.0,29.87,NW,323,1.0,5.0,95,0.00,,,0.00,weatherlink.com 1.10,2013-08-13 12:59:00,
2013-08-13 09:14:00,76.4,74.0,29.87,ESE,121,1.0,6.0,93,0.00,,,0.00,weatherlink.com 1.10,2013-08-13 13:14:00,
2013-08-13 09:29:00,77.1,75.0,29.87,SE,142,1.0,5.0,92,0.00,,,0.00,weatherlink.com 1.10,2013-08-13 13:29:00,
2013-08-13 09:44:00,77.9,75.0,29.87,SW,218,0.0,7.0,91,0.00,,,0.00,weatherlink.com 1.10,2013-08-13 13:44:00,
2013-08-13 09:59:00,78.7,75.0,29.87,SSE,163,0.0,6.0,89,0.00,,,0.00,weatherlink.com 1.10,2013-08-13 13:59:00,
2013-08-13 10:14:00,79.5,76.0,29.87,ESE,115,2.0,8.0,88,0.00,,,0.00,weatherlink.com 1.10,2013-08-13 14:14:00,
2013-08-13 10:29:00,80.4,77.0,29.87,West,264,3.0,4.0,88,0.00,,,0.00,weatherlink.com 1.10,2013-08-13 14:29:00,
2013-08-13 10:44:00,80.8,76.0,29.87,SE,128,1.0,5.0,86,0.00,,,0.00,weatherlink.com 1.10,2013-08-13 14:44:00,
2013-08-13 11:00:00,81.3,77.0,29.87,East,101,1.0,5.0,85,0.00,,,0.00,weatherlink.com 1.10,2013-08-13 15:00:00,
2013-08-13 11:15:00,81.6,76.0,29.87,East,84,2.0,7.0,84,0.00,,,0.00,weatherlink.com 1.10,2013-08-13 15:15:00,
2013-08-13 11:30:00,82.3,76.0,29.86,ESE,123,0.0,5.0,82,0.00,,,0.00,weatherlink.com 1.10,2013-08-13 15:30:00,
2013-08-13 11:45:00,83.1,77.0,29.86,East,95,1.0,5.0,81,0.00,,,0.00,weatherlink.com 1.10,2013-08-13 15:45:00,
2013-08-13 12:00:00,83.9,77.0,29.86,East,98,1.0,13.0,79,0.00,,,0.00,weatherlink.com 1.10,2013-08-13 16:00:00,
2013-08-13 12:15:00,85.1,77.0,29.86,NW,314,3.0,7.0,77,0.00,,,0.00,weatherlink.com 1.10,2013-08-13 16:15:00,
2013-08-13 12:30:00,86.2,77.0,29.85,East,101,1.0,8.0,75,0.00,,,0.00,weatherlink.com 1.10,2013-08-13 16:30:00,
2013-08-13 12:45:00,87.0,77.0,29.85,ESE,109,2.0,6.0,73,0.00,,,0.00,weatherlink.com 1.10,2013-08-13 16:45:00,
2013-08-13 13:00:00,87.1,78.0,29.84,East,96,3.0,5.0,74,0.00,,,0.00,weatherlink.com 1.10,2013-08-13 17:00:00,
2013-08-13 13:15:00,87.4,77.0,29.84,WNW,296,1.0,6.0,72,0.00,,,0.00,weatherlink.com 1.10,2013-08-13 17:15:00,
2013-08-13 13:30:00,87.7,78.0,29.83,NW,326,4.0,4.0,72,0.00,,,0.00,weatherlink.com 1.10,2013-08-13 17:30:00,
2013-08-13 13:45:00,88.4,77.0,29.82,ESE,123,3.0,10.0,69,0.00,,,0.00,weatherlink.com 1.10,2013-08-13 17:45:00,
2013-08-13 14:00:00,89.9,77.0,29.82,ENE,63,3.0,6.0,65,0.00,,,0.00,weatherlink.com 1.10,2013-08-13 18:00:00,
2013-08-13 14:15:00,86.9,77.0,29.82,SE,126,3.0,9.0,72,0.00,,,0.00,weatherlink.com 1.10,2013-08-13 18:15:00,
2013-08-13 14:30:00,79.8,75.0,29.81,WNW,290,0.0,3.0,86,0.00,,,0.00,weatherlink.com 1.10,2013-08-13 18:30:00,
2013-08-13 14:45:00,78.0,76.0,29.83,NW,309,3.0,6.0,93,0.00,,,0.00,weatherlink.com 1.10,2013-08-13 18:45:00,
2013-08-13 15:00:00,76.9,75.0,29.81,WSW,246,0.0,3.0,92,0.00,,,0.00,weatherlink.com 1.10,2013-08-13 19:00:00,
2013-08-13 15:15:00,78.5,76.0,29.81,SW,232,1.0,2.0,92,0.00,,,0.00,weatherlink.com 1.10,2013-08-13 19:15:00,
2013-08-13 15:30:00,80.9,77.0,29.80,West,273,0.0,3.0,88,0.00,,,0.00,weatherlink.com 1.10,2013-08-13 19:30:00,
2013-08-13 15:45:00,82.2,78.0,29.79,SSW,211,0.0,2.0,88,0.00,,,0.00,weatherlink.com 1.10,2013-08-13 19:45:00,
2013-08-13 16:00:00,83.1,79.0,29.78,SW,215,0.0,3.0,88,0.00,,,0.00,weatherlink.com 1.10,2013-08-13 20:00:00,
2013-08-13 16:15:00,85.0,79.0,29.78,ESE,111,1.0,6.0,82,0.00,,,0.00,weatherlink.com 1.10,2013-08-13 20:15:00,
2013-08-13 16:30:00,86.6,80.0,29.77,SW,222,1.0,2.0,80,0.00,,,0.00,weatherlink.com 1.10,2013-08-13 20:30:00,
2013-08-13 16:45:00,87.4,79.0,29.77,WNW,294,1.0,5.0,77,0.00,,,0.00,weatherlink.com 1.10,2013-08-13 20:45:00,
2013-08-13 17:00:00,88.0,78.0,29.77,North,355,3.0,4.0,72,0.00,,,0.00,weatherlink.com 1.10,2013-08-13 21:00:00,
2013-08-13 17:15:00,87.8,77.0,29.77,SSE,167,2.0,6.0,71,0.00,,,0.00,weatherlink.com 1.10,2013-08-13 21:15:00,
2013-08-13 17:30:00,88.2,78.0,29.77,WNW,302,2.0,5.0,71,0.00,,,0.00,weatherlink.com 1.10,2013-08-13 21:30:00,
2013-08-13 17:45:00,87.3,77.0,29.77,SE,139,0.0,6.0,71,0.00,,,0.00,weatherlink.com 1.10,2013-08-13 21:45:00,
2013-08-13 18:00:00,87.2,77.0,29.77,SW,234,0.0,4.0,71,0.00,,,0.00,weatherlink.com 1.10,2013-08-13 22:00:00,
2013-08-13 18:15:00,86.8,77.0,29.77,WNW,294,1.0,4.0,72,0.00,,,0.00,weatherlink.com 1.10,2013-08-13 22:15:00,
2013-08-13 18:30:00,86.5,77.0,29.76,SSE,167,2.0,5.0,72,0.00,,,0.00,weatherlink.com 1.10,2013-08-13 22:30:00,
2013-08-13 18:45:00,85.9,76.0,29.76,South,180,0.0,7.0,73,0.00,,,0.00,weatherlink.com 1.10,2013-08-13 22:45:00,
2013-08-13 19:00:00,85.7,76.0,29.77,SSW,205,1.0,5.0,72,0.00,,,0.00,weatherlink.com 1.10,2013-08-13 23:00:00,
2013-08-13 19:15:00,85.3,76.0,29.77,SSE,162,0.0,3.0,73,0.00,,,0.00,weatherlink.com 1.10,2013-08-13 23:15:00,
2013-08-13 19:30:00,84.7,76.0,29.77,SE,130,0.0,2.0,75,0.00,,,0.00,weatherlink.com 1.10,2013-08-13 23:30:00,
2013-08-13 19:45:00,83.8,76.0,29.77,East,100,1.0,5.0,78,0.00,,,0.00,weatherlink.com 1.10,2013-08-13 23:45:00,
2013-08-13 20:01:00,82.1,72.0,29.78,NW,304,0.0,6.0,72,0.00,,,0.00,weatherlink.com 1.10,2013-08-14 00:01:00,
2013-08-13 20:16:00,81.1,73.0,29.79,SW,221,0.0,3.0,77,0.00,,,0.00,weatherlink.com 1.10,2013-08-14 00:16:00,
2013-08-13 20:31:00,79.2,74.0,29.80,SW,221,0.0,0.0,85,0.00,,,0.00,weatherlink.com 1.10,2013-08-14 00:31:00,
2013-08-13 20:46:00,77.7,74.0,29.81,SW,221,0.0,0.0,88,0.00,,,0.00,weatherlink.com 1.10,2013-08-14 00:46:00,
2013-08-13 21:01:00,75.7,73.0,29.81,West,268,1.0,5.0,90,0.00,,,0.00,weatherlink.com 1.10,2013-08-14 01:01:00,
2013-08-13 21:16:00,74.8,73.0,29.82,WNW,303,1.0,3.0,93,0.00,,,0.00,weatherlink.com 1.10,2013-08-14 01:16:00,
2013-08-13 21:31:00,74.2,72.0,29.82,WSW,251,0.0,2.0,93,0.00,,,0.00,weatherlink.com 1.10,2013-08-14 01:31:00,
2013-08-13 21:46:00,73.8,72.0,29.82,WSW,251,0.0,0.0,94,0.00,,,0.00,weatherlink.com 1.10,2013-08-14 01:46:00,
2013-08-13 22:01:00,73.8,72.0,29.82,WSW,251,0.0,0.0,95,0.00,,,0.00,weatherlink.com 1.10,2013-08-14 02:01:00,
2013-08-13 22:16:00,73.8,73.0,29.82,WSW,251,0.0,0.0,96,0.00,,,0.00,weatherlink.com 1.10,2013-08-14 02:16:00,
2013-08-13 22:31:00,73.7,73.0,29.82,WSW,251,0.0,0.0,97,0.00,,,0.00,weatherlink.com 1.10,2013-08-14 02:31:00,
2013-08-13 22:46:00,73.7,73.0,29.82,WSW,251,0.0,1.0,97,0.00,,,0.00,weatherlink.com 1.10,2013-08-14 02:46:00,
2013-08-13 23:01:00,73.7,73.0,29.82,WSW,251,0.0,1.0,97,0.00,,,0.00,weatherlink.com 1.10,2013-08-14 03:01:00,
2013-08-13 23:16:00,73.6,73.0,29.82,WSW,251,0.0,1.0,97,0.00,,,0.00,weatherlink.com 1.10,2013-08-14 03:16:00,
2013-08-13 23:31:00,73.6,73.0,29.83,WSW,251,0.0,0.0,97,0.00,,,0.00,weatherlink.com 1.10,2013-08-14 03:31:00,
2013-08-13 23:46:00,73.7,73.0,29.83,WSW,251,0.0,0.0,97,0.00,,,0.00,weatherlink.com 1.10,2013-08-14 03:46:00,